createdAt,value
2024-03-04T00:00:23.481Z,5.16
2024-03-04T00:03:32.705Z,5.16
2024-03-04T00:06:40.310Z,5.10
2024-03-04T00:09:47.831Z,5.07
2024-03-04T00:12:56.982Z,5.02
2024-03-04T00:16:05.265Z,4.96
2024-03-04T00:19:14.125Z,4.88
2024-03-04T00:22:21.881Z,4.89
2024-03-04T00:25:29.825Z,4.84
2024-03-04T00:28:37.525Z,4.79
2024-03-04T00:31:47.033Z,4.73
2024-03-04T00:34:54.921Z,4.70
2024-03-04T00:38:02.409Z,4.72
2024-03-04T00:41:09.929Z,4.75
2024-03-04T00:44:18.189Z,4.72
2024-03-04T00:47:25.826Z,4.69
2024-03-04T00:50:33.425Z,4.70
2024-03-04T00:53:41.531Z,4.69
2024-03-04T00:56:49.595Z,4.62
2024-03-04T00:59:58.155Z,4.57
2024-03-04T01:03:08.416Z,4.51
2024-03-04T01:06:16.446Z,4.46
2024-03-04T01:09:24.908Z,4.46
2024-03-04T01:12:26.906Z,4.44
2024-03-04T01:15:35.360Z,4.40
2024-03-04T01:18:42.929Z,4.34
2024-03-04T01:21:50.947Z,4.28
2024-03-04T01:24:58.626Z,4.24
2024-03-04T01:28:06.569Z,4.21
2024-03-04T01:31:15.838Z,4.12
2024-03-04T01:34:24.112Z,4.08
2024-03-04T01:37:31.900Z,4.04
2024-03-04T01:40:39.454Z,3.94
2024-03-04T01:43:47.656Z,3.89
2024-03-04T01:46:54.962Z,3.88
2024-03-04T01:50:03.549Z,3.85
2024-03-04T01:53:11.529Z,3.78
2024-03-04T01:56:19.392Z,3.76
2024-03-04T01:59:27.405Z,3.72
2024-03-04T02:02:36.800Z,3.67
2024-03-04T02:05:45.060Z,3.62
2024-03-04T02:08:52.828Z,3.61
2024-03-04T02:12:00.862Z,3.62
2024-03-04T02:15:08.635Z,3.58
2024-03-04T02:18:16.108Z,3.57
2024-03-04T02:21:24.378Z,3.50
2024-03-04T02:24:32.590Z,3.40
2024-03-04T02:27:39.864Z,3.34
2024-03-04T02:30:48.037Z,3.30
2024-03-04T02:33:57.384Z,3.31
2024-03-04T02:37:05.316Z,3.31
2024-03-04T02:40:13.857Z,3.25
2024-03-04T02:43:21.936Z,3.28
2024-03-04T02:46:29.270Z,3.31
2024-03-04T02:49:37.911Z,3.27
2024-03-04T02:52:45.652Z,3.27
2024-03-04T02:55:53.668Z,3.23
2024-03-04T02:59:01.995Z,3.16
2024-03-04T03:02:11.173Z,3.09
2024-03-04T03:05:19.505Z,3.09
2024-03-04T03:08:27.176Z,3.07
2024-03-04T03:11:35.364Z,3.05
2024-03-04T03:14:43.210Z,2.95
2024-03-04T03:17:52.199Z,2.97
2024-03-04T03:21:00.003Z,3.00
2024-03-04T03:24:07.482Z,3.00
2024-03-04T03:27:15.873Z,3.03
2024-03-04T03:30:23.004Z,2.95
2024-03-04T03:33:32.332Z,2.95
2024-03-04T03:36:39.809Z,2.92
2024-03-04T03:39:47.905Z,2.94
2024-03-04T03:42:56.213Z,2.81
2024-03-04T03:46:03.343Z,2.74
2024-03-04T03:49:11.534Z,2.73
2024-03-04T03:52:19.096Z,2.73
2024-03-04T03:55:26.637Z,2.74
2024-03-04T03:58:34.878Z,2.76
2024-03-04T04:01:44.061Z,2.69
2024-03-04T04:04:51.743Z,2.67
2024-03-04T04:07:58.838Z,2.63
2024-03-04T04:11:07.144Z,2.56
2024-03-04T04:14:14.774Z,2.59
2024-03-04T04:17:22.852Z,2.58
2024-03-04T04:20:30.264Z,2.61
2024-03-04T04:23:38.069Z,2.64
2024-03-04T04:26:45.841Z,2.67
2024-03-04T04:29:53.947Z,2.61
2024-03-04T04:33:03.940Z,2.55
2024-03-04T04:36:11.920Z,2.56
2024-03-04T04:39:19.782Z,2.53
2024-03-04T04:42:27.457Z,2.51
2024-03-04T04:45:35.468Z,2.46
2024-03-04T04:48:43.799Z,2.46
2024-03-04T04:51:51.351Z,2.37
2024-03-04T04:54:59.273Z,2.41
2024-03-04T04:58:07.051Z,2.45
2024-03-04T05:01:15.748Z,2.49
2024-03-04T05:04:38.841Z,2.49
2024-03-04T05:07:30.096Z,2.46
2024-03-04T05:10:37.708Z,2.49
2024-03-04T05:13:45.915Z,2.56
2024-03-04T05:16:53.510Z,2.53
2024-03-04T05:20:01.654Z,2.58
2024-03-04T05:23:09.459Z,2.61
2024-03-04T05:26:17.000Z,2.63
2024-03-04T05:29:25.584Z,2.66
2024-03-04T05:32:34.362Z,2.64
2024-03-04T05:35:42.779Z,2.69
2024-03-04T05:38:50.673Z,2.73
2024-03-04T05:41:58.601Z,2.71
2024-03-04T05:45:06.153Z,2.70
2024-03-04T05:48:13.689Z,2.76
2024-03-04T05:51:21.658Z,2.88
2024-03-04T05:54:30.143Z,2.95
2024-03-04T05:57:37.614Z,3.05
2024-03-04T06:00:45.720Z,3.12
2024-03-04T06:03:55.191Z,3.27
2024-03-04T06:07:04.035Z,3.39
2024-03-04T06:10:11.255Z,3.47
2024-03-04T06:13:19.188Z,3.53
2024-03-04T06:16:27.755Z,3.58
2024-03-04T06:19:35.063Z,3.64
2024-03-04T06:22:43.207Z,3.71
2024-03-04T06:25:51.824Z,3.70
2024-03-04T06:28:59.587Z,3.75
2024-03-04T06:32:06.936Z,3.80
2024-03-04T06:35:16.345Z,3.75
2024-03-04T06:38:26.404Z,3.75
2024-03-04T06:41:24.204Z,3.78
2024-03-04T06:44:32.412Z,3.90
2024-03-04T06:47:40.147Z,4.03
2024-03-04T06:50:47.831Z,4.12
2024-03-04T06:53:56.739Z,4.22
2024-03-04T06:57:03.892Z,4.28
2024-03-04T07:00:12.165Z,4.40
2024-03-04T07:03:21.649Z,4.55
2024-03-04T07:06:29.360Z,4.65
2024-03-04T07:09:38.039Z,4.73
2024-03-04T07:12:45.364Z,4.83
2024-03-04T07:15:53.646Z,4.89
2024-03-04T07:19:01.762Z,4.92
2024-03-04T07:22:10.472Z,5.01
2024-03-04T07:25:18.043Z,5.07
2024-03-04T07:28:25.670Z,5.07
2024-03-04T07:31:35.233Z,5.09
2024-03-04T07:34:45.479Z,5.02
2024-03-04T07:37:53.169Z,4.99
2024-03-04T07:41:00.698Z,4.98
2024-03-04T07:44:07.879Z,5.01
2024-03-04T07:47:16.152Z,5.13
2024-03-04T07:50:24.834Z,5.10
2024-03-04T07:53:32.434Z,5.12
2024-03-04T07:56:40.666Z,5.30
2024-03-04T07:59:48.878Z,5.49
2024-03-04T08:02:57.678Z,5.59
2024-03-04T08:06:05.955Z,5.73
2024-03-04T08:09:13.912Z,5.91
2024-03-04T08:12:21.694Z,5.96
2024-03-04T08:15:30.254Z,5.93
2024-03-04T08:18:37.908Z,6.01
2024-03-04T08:21:45.615Z,6.06
2024-03-04T08:24:53.369Z,6.09
2024-03-04T08:28:01.347Z,6.28
2024-03-04T08:31:09.233Z,6.28
2024-03-04T08:34:17.887Z,6.29
2024-03-04T08:37:26.017Z,6.33
2024-03-04T08:40:33.629Z,6.30
2024-03-04T08:43:42.369Z,6.38
2024-03-04T08:46:50.177Z,6.46
2024-03-04T08:49:58.007Z,6.50
2024-03-04T08:53:06.004Z,6.54
2024-03-04T08:56:14.049Z,6.66
2024-03-04T08:59:21.693Z,6.66
2024-03-04T09:02:30.013Z,6.51
2024-03-04T09:05:39.894Z,6.61
2024-03-04T09:08:47.117Z,6.68
2024-03-04T09:11:55.407Z,6.87
2024-03-04T09:15:03.745Z,7.02
2024-03-04T09:18:11.486Z,7.17
2024-03-04T09:21:19.468Z,7.20
2024-03-04T09:24:27.658Z,7.22
2024-03-04T09:27:35.204Z,7.23
2024-03-04T09:30:43.447Z,7.34
2024-03-04T09:33:52.672Z,7.42
2024-03-04T09:37:00.580Z,7.45
2024-03-04T09:40:08.107Z,7.45
2024-03-04T09:43:16.252Z,7.66
2024-03-04T09:46:24.088Z,7.69
2024-03-04T09:49:31.802Z,7.49
2024-03-04T09:52:39.916Z,7.52
2024-03-04T09:55:47.422Z,7.67
2024-03-04T09:58:55.443Z,7.78
2024-03-04T10:02:03.595Z,7.66
2024-03-04T10:05:12.262Z,7.75
2024-03-04T10:08:20.334Z,7.81
2024-03-04T10:11:28.669Z,7.94
2024-03-04T10:14:36.506Z,7.97
2024-03-04T10:17:44.343Z,8.12
2024-03-04T10:20:52.215Z,8.17
2024-03-04T10:23:59.874Z,8.12
2024-03-04T10:27:08.341Z,8.14
2024-03-04T10:30:15.958Z,8.28
2024-03-04T10:33:24.860Z,8.36
2024-03-04T10:36:32.965Z,8.42
2024-03-04T10:39:40.439Z,8.50
2024-03-04T10:42:49.175Z,8.55
2024-03-04T10:45:56.714Z,8.55
2024-03-04T10:49:05.038Z,8.66
2024-03-04T10:52:14.420Z,8.71
2024-03-04T10:55:12.923Z,8.79
2024-03-04T10:58:21.069Z,8.86
2024-03-04T11:01:29.650Z,8.84
2024-03-04T11:04:39.180Z,8.76
2024-03-04T11:07:47.653Z,8.79
2024-03-04T11:10:55.296Z,8.93
2024-03-04T11:14:03.496Z,9.02
2024-03-04T11:17:12.704Z,9.15
2024-03-04T11:20:20.482Z,9.27
2024-03-04T11:23:27.882Z,9.21
2024-03-04T11:26:35.788Z,9.34
2024-03-04T11:29:43.464Z,9.50
2024-03-04T11:32:51.654Z,9.64
2024-03-04T11:36:01.644Z,9.66
2024-03-04T11:39:09.667Z,9.78
2024-03-04T11:42:17.287Z,9.88
2024-03-04T11:45:25.442Z,9.91
2024-03-04T11:48:32.694Z,9.94
2024-03-04T11:51:41.881Z,9.97
2024-03-04T11:54:50.919Z,10.18
2024-03-04T11:57:59.477Z,10.12
2024-03-04T12:01:13.213Z,10.14
2024-03-04T12:04:14.936Z,10.17
2024-03-04T12:07:24.617Z,10.28
2024-03-04T12:10:32.321Z,10.34
2024-03-04T12:13:40.764Z,10.42
2024-03-04T12:16:48.644Z,10.43
2024-03-04T12:19:56.375Z,10.32
2024-03-04T12:23:05.195Z,10.19
2024-03-04T12:26:12.688Z,10.10
2024-03-04T12:29:20.733Z,10.00
2024-03-04T12:32:29.350Z,9.99
2024-03-04T12:35:38.489Z,10.06
2024-03-04T12:38:46.827Z,10.10
2024-03-04T12:41:54.551Z,10.24
2024-03-04T12:45:02.463Z,10.32
2024-03-04T12:48:11.019Z,10.24
2024-03-04T12:51:18.709Z,10.26
2024-03-04T12:54:26.913Z,10.30
2024-03-04T12:57:34.805Z,10.26
2024-03-04T13:00:42.928Z,10.21
2024-03-04T13:03:51.054Z,10.26
2024-03-04T13:06:59.955Z,10.25
2024-03-04T13:10:08.168Z,10.19
2024-03-04T13:13:16.160Z,10.18
2024-03-04T13:16:24.067Z,10.10
2024-03-04T13:19:32.185Z,10.03
2024-03-04T13:22:39.965Z,10.01
2024-03-04T13:25:47.509Z,9.93
2024-03-04T13:28:56.810Z,9.83
2024-03-04T13:32:04.866Z,9.82
2024-03-04T13:35:14.020Z,9.89
2024-03-04T13:38:22.063Z,9.89
2024-03-04T13:41:29.606Z,9.88
2024-03-04T13:44:37.174Z,9.85
2024-03-04T13:47:48.318Z,9.75
2024-03-04T13:50:45.488Z,9.71
2024-03-04T13:53:54.436Z,9.68
2024-03-04T13:57:02.019Z,9.57
2024-03-04T14:00:10.062Z,9.63
2024-03-04T14:03:17.266Z,9.71
2024-03-04T14:06:26.817Z,9.81
2024-03-04T14:09:35.280Z,9.81
2024-03-04T14:12:42.889Z,9.81
2024-03-04T14:15:50.952Z,9.79
2024-03-04T14:18:59.076Z,9.78
2024-03-04T14:22:07.110Z,9.67
2024-03-04T14:25:14.897Z,9.67
2024-03-04T14:28:23.026Z,9.67
2024-03-04T14:31:30.652Z,9.60
2024-03-04T14:34:40.198Z,9.56
2024-03-04T14:37:48.322Z,9.58
2024-03-04T14:40:58.850Z,9.63
2024-03-04T14:43:56.637Z,9.67
2024-03-04T14:47:04.453Z,9.67
2024-03-04T14:50:12.898Z,9.64
2024-03-04T14:53:20.411Z,9.64
2024-03-04T14:56:28.383Z,9.68
2024-03-04T14:59:36.598Z,9.64
2024-03-04T15:02:45.712Z,9.71
2024-03-04T15:05:55.936Z,9.73
2024-03-04T15:09:03.819Z,9.78
2024-03-04T15:12:11.505Z,9.86
2024-03-04T15:15:20.025Z,9.94
2024-03-04T15:18:27.553Z,9.89
2024-03-04T15:21:35.439Z,9.85
2024-03-04T15:24:43.815Z,9.82
2024-03-04T15:27:51.338Z,9.83
2024-03-04T15:30:58.842Z,9.76
2024-03-04T15:34:07.183Z,9.78
2024-03-04T15:37:15.804Z,9.85
2024-03-04T15:40:24.039Z,9.81
2024-03-04T15:43:32.634Z,9.82
2024-03-04T15:46:41.879Z,9.85
2024-03-04T15:49:50.706Z,9.82
2024-03-04T15:52:59.072Z,9.85
2024-03-04T15:56:06.787Z,9.85
2024-03-04T15:59:14.485Z,9.86
2024-03-04T16:02:22.868Z,9.82
2024-03-04T16:05:32.506Z,9.73
2024-03-04T16:08:40.171Z,9.67
2024-03-04T16:11:48.672Z,9.61
2024-03-04T16:14:55.692Z,9.60
2024-03-04T16:18:04.148Z,9.57
2024-03-04T16:21:11.628Z,9.58
2024-03-04T16:24:19.575Z,9.56
2024-03-04T16:27:27.944Z,9.53
2024-03-04T16:30:36.533Z,9.49
2024-03-04T16:33:44.073Z,9.45
2024-03-04T16:36:52.839Z,9.43
2024-03-04T16:40:01.288Z,9.43
2024-03-04T16:43:09.553Z,9.39
2024-03-04T16:46:17.795Z,9.35
2024-03-04T16:49:26.028Z,9.34
2024-03-04T16:52:33.596Z,9.32
2024-03-04T16:55:41.979Z,9.32
2024-03-04T16:58:50.355Z,9.35
2024-03-04T17:01:58.594Z,9.34
2024-03-04T17:05:06.578Z,9.34
2024-03-04T17:08:16.451Z,9.32
2024-03-04T17:11:24.122Z,9.32
2024-03-04T17:14:32.077Z,9.31
2024-03-04T17:17:39.418Z,9.27
2024-03-04T17:20:46.850Z,9.27
2024-03-04T17:23:55.114Z,9.28
2024-03-04T17:27:03.531Z,9.30
2024-03-04T17:30:12.053Z,9.30
2024-03-04T17:33:20.024Z,9.21
2024-03-04T17:36:30.038Z,9.16
2024-03-04T17:39:38.351Z,9.09
2024-03-04T17:42:46.354Z,9.06
2024-03-04T17:45:54.300Z,9.06
2024-03-04T17:49:02.643Z,9.05
2024-03-04T17:52:10.554Z,9.05
2024-03-04T17:55:18.293Z,9.04
2024-03-04T17:58:26.399Z,9.04
2024-03-04T18:01:34.001Z,9.04
2024-03-04T18:04:41.798Z,9.04
2024-03-04T18:07:50.808Z,9.05
2024-03-04T18:10:58.552Z,9.05
2024-03-04T18:14:05.993Z,9.06
2024-03-04T18:17:13.679Z,9.09
2024-03-04T18:20:21.353Z,9.10
2024-03-04T18:23:28.848Z,9.12
2024-03-04T18:26:36.490Z,9.15
2024-03-04T18:29:44.104Z,9.13
2024-03-04T18:32:52.201Z,9.15
2024-03-04T18:36:02.093Z,9.15
2024-03-04T18:39:10.027Z,9.16
2024-03-04T18:42:18.221Z,9.16
2024-03-04T18:45:25.566Z,9.15
2024-03-04T18:48:34.204Z,9.15
2024-03-04T18:51:42.436Z,9.15
2024-03-04T18:54:50.727Z,9.06
2024-03-04T18:57:58.585Z,9.04
2024-03-04T19:01:06.851Z,9.01
2024-03-04T19:04:15.164Z,8.99
2024-03-04T19:07:25.134Z,8.97
2024-03-04T19:10:32.653Z,8.96
2024-03-04T19:13:40.857Z,8.96
2024-03-04T19:16:48.749Z,8.97
2024-03-04T19:19:57.541Z,8.96
2024-03-04T19:23:06.091Z,8.94
2024-03-04T19:26:14.038Z,8.90
2024-03-04T19:29:22.173Z,8.90
2024-03-04T19:32:30.234Z,8.91
2024-03-04T19:35:38.709Z,8.93
2024-03-04T19:38:48.424Z,8.96
2024-03-04T19:41:55.930Z,8.97
2024-03-04T19:45:04.204Z,8.99
2024-03-04T19:48:12.419Z,9.01
2024-03-04T19:51:21.529Z,9.01
2024-03-04T19:54:30.769Z,9.02
2024-03-04T19:57:40.685Z,9.04
2024-03-04T20:00:38.994Z,9.02
2024-03-04T20:03:47.382Z,9.02
2024-03-04T20:06:56.272Z,9.04
2024-03-04T20:10:04.670Z,9.02
2024-03-04T20:13:13.473Z,9.01
2024-03-04T20:16:21.212Z,9.01
2024-03-04T20:19:29.665Z,8.96
2024-03-04T20:22:37.722Z,8.90
2024-03-04T20:25:45.497Z,8.83
2024-03-04T20:28:53.683Z,8.76
2024-03-04T20:32:01.441Z,8.76
2024-03-04T20:35:09.812Z,8.75
2024-03-04T20:38:19.214Z,8.76
2024-03-04T20:41:27.246Z,8.76
2024-03-04T20:44:35.387Z,8.79
2024-03-04T20:47:42.820Z,8.83
2024-03-04T20:50:50.927Z,8.81
2024-03-04T20:53:58.503Z,8.84
2024-03-04T20:57:06.668Z,8.86
2024-03-04T21:00:15.059Z,8.86
2024-03-04T21:03:23.277Z,8.88
2024-03-04T21:06:32.829Z,8.86
2024-03-04T21:09:41.499Z,8.84
2024-03-04T21:12:49.941Z,8.83
2024-03-04T21:15:58.266Z,8.84
2024-03-04T21:19:06.089Z,8.84
2024-03-04T21:22:14.037Z,8.84
2024-03-04T21:25:22.557Z,8.84
2024-03-04T21:28:30.698Z,8.83
2024-03-04T21:31:38.045Z,8.84
2024-03-04T21:34:46.469Z,8.79
2024-03-04T21:37:56.645Z,8.83
2024-03-04T21:41:04.122Z,8.81
2024-03-04T21:44:12.759Z,8.83
2024-03-04T21:47:20.973Z,8.81
2024-03-04T21:50:28.719Z,8.79
2024-03-04T21:53:36.498Z,8.79
2024-03-04T21:56:44.328Z,8.76
2024-03-04T21:59:52.364Z,8.76
2024-03-04T22:03:00.215Z,8.76
2024-03-04T22:06:08.161Z,8.73
2024-03-04T22:09:17.944Z,8.75
2024-03-04T22:12:25.881Z,8.72
2024-03-04T22:15:34.341Z,8.72
2024-03-04T22:18:41.473Z,8.73
2024-03-04T22:21:50.082Z,8.73
2024-03-04T22:24:57.804Z,8.73
2024-03-04T22:28:06.476Z,8.72
2024-03-04T22:31:14.165Z,8.72
2024-03-04T22:34:22.201Z,8.72
2024-03-04T22:37:30.960Z,8.72
2024-03-04T22:40:39.746Z,8.73
2024-03-04T22:43:48.183Z,8.71
2024-03-04T22:46:56.131Z,8.71
2024-03-04T22:50:05.168Z,8.71
2024-03-04T22:53:12.881Z,8.71
2024-03-04T22:56:20.210Z,8.71
2024-03-04T22:59:28.869Z,8.69
2024-03-04T23:02:36.207Z,8.69
2024-03-04T23:05:44.237Z,8.69
2024-03-04T23:08:53.531Z,8.66
2024-03-04T23:12:01.889Z,8.58
2024-03-04T23:15:09.596Z,8.58
2024-03-04T23:18:17.689Z,8.57
2024-03-04T23:21:25.213Z,8.57
2024-03-04T23:24:32.663Z,8.58
2024-03-04T23:27:41.161Z,8.57
2024-03-04T23:30:50.013Z,8.55
2024-03-04T23:33:58.105Z,8.53
2024-03-04T23:37:08.684Z,8.53
2024-03-04T23:40:16.920Z,8.54
2024-03-04T23:43:25.324Z,8.54
2024-03-04T23:46:33.043Z,8.54
2024-03-04T23:49:41.236Z,8.54
2024-03-04T23:52:49.612Z,8.54
2024-03-04T23:55:57.492Z,8.55
2024-03-04T23:59:05.232Z,8.57
